createdAt,value
2024-04-15T00:01:45.705Z,9.00
2024-04-15T00:04:14.727Z,9.00
2024-04-15T00:06:42.246Z,9.00
2024-04-15T00:09:09.493Z,9.00
2024-04-15T00:11:36.761Z,9.00
2024-04-15T00:14:04.398Z,9.00
2024-04-15T00:16:32.732Z,8.90
2024-04-15T00:19:00.212Z,8.90
2024-04-15T00:21:27.591Z,8.90
2024-04-15T00:23:54.825Z,8.90
2024-04-15T00:26:22.047Z,8.90
2024-04-15T00:28:49.326Z,8.90
2024-04-15T00:31:16.616Z,8.90
2024-04-15T00:33:46.977Z,8.80
2024-04-15T00:36:14.251Z,8.80
2024-04-15T00:38:41.600Z,8.80
2024-04-15T00:41:08.978Z,8.80
2024-04-15T00:43:38.014Z,8.80
2024-04-15T00:46:07.917Z,8.80
2024-04-15T00:48:35.476Z,8.80
2024-04-15T00:51:02.755Z,8.80
2024-04-15T00:53:30.246Z,8.70
2024-04-15T00:55:59.684Z,8.70
2024-04-15T00:58:27.375Z,8.70
2024-04-15T01:00:54.978Z,8.70
2024-04-15T01:03:23.396Z,8.70
2024-04-15T01:05:51.218Z,8.70
2024-04-15T01:08:18.714Z,8.60
2024-04-15T01:10:55.391Z,8.60
2024-04-15T01:13:27.747Z,8.60
2024-04-15T01:15:58.974Z,8.60
2024-04-15T01:18:26.727Z,8.60
2024-04-15T01:20:55.916Z,8.50
2024-04-15T01:23:23.687Z,8.50
2024-04-15T01:25:51.265Z,8.50
2024-04-15T01:28:20.902Z,8.50
2024-04-15T01:30:49.929Z,8.50
2024-04-15T01:33:17.320Z,8.50
2024-04-15T01:35:44.604Z,8.40
2024-04-15T01:38:11.911Z,8.40
2024-04-15T01:40:39.208Z,8.40
2024-04-15T01:43:06.939Z,8.40
2024-04-15T01:45:34.211Z,8.40
2024-04-15T01:48:01.770Z,8.40
2024-04-15T01:50:29.080Z,8.40
2024-04-15T01:52:56.530Z,8.40
2024-04-15T01:55:24.041Z,8.40
2024-04-15T01:57:51.389Z,8.40
2024-04-15T02:00:19.816Z,8.40
2024-04-15T02:02:47.201Z,8.30
2024-04-15T02:05:34.173Z,8.40
2024-04-15T02:08:15.056Z,8.40
2024-04-15T02:10:46.052Z,8.40
2024-04-15T02:13:16.054Z,8.40
2024-04-15T02:15:43.506Z,8.40
2024-04-15T02:18:17.135Z,8.40
2024-04-15T02:20:48.967Z,8.40
2024-04-15T02:23:17.620Z,8.40
2024-04-15T02:25:44.931Z,8.40
2024-04-15T02:28:12.255Z,8.40
2024-04-15T02:30:39.564Z,8.40
2024-04-15T02:33:06.908Z,8.40
2024-04-15T02:35:34.207Z,8.40
2024-04-15T02:38:01.541Z,8.50
2024-04-15T02:40:28.966Z,8.40
2024-04-15T02:42:56.173Z,8.50
2024-04-15T02:45:23.459Z,8.50
2024-04-15T02:47:50.784Z,8.50
2024-04-15T02:50:18.162Z,8.50
2024-04-15T02:52:45.699Z,8.60
2024-04-15T02:55:13.054Z,8.60
2024-04-15T02:57:40.457Z,8.60
2024-04-15T03:00:08.026Z,8.70
2024-04-15T03:02:37.660Z,8.70
2024-04-15T03:05:05.248Z,8.70
2024-04-15T03:07:32.497Z,8.60
2024-04-15T03:09:59.827Z,8.60
2024-04-15T03:12:27.130Z,8.60
2024-04-15T03:14:54.788Z,8.50
2024-04-15T03:17:22.205Z,8.60
2024-04-15T03:19:53.448Z,8.60
2024-04-15T03:22:20.998Z,8.60
2024-04-15T03:24:48.755Z,8.60
2024-04-15T03:27:16.107Z,8.60
2024-04-15T03:29:44.009Z,8.60
2024-04-15T03:32:11.374Z,8.60
2024-04-15T03:34:38.683Z,8.50
2024-04-15T03:37:06.037Z,8.50
2024-04-15T03:39:33.356Z,8.50
2024-04-15T03:42:02.371Z,8.50
2024-04-15T03:44:29.635Z,8.50
2024-04-15T03:46:56.869Z,8.50
2024-04-15T03:49:24.133Z,8.50
2024-04-15T03:51:51.503Z,8.50
2024-04-15T03:54:18.780Z,8.60
2024-04-15T03:56:46.002Z,8.60
2024-04-15T03:59:13.335Z,8.60
2024-04-15T04:01:41.059Z,8.60
2024-04-15T04:04:08.466Z,8.50
2024-04-15T04:06:36.080Z,8.50
2024-04-15T04:09:03.622Z,8.50
2024-04-15T04:11:31.052Z,8.50
2024-04-15T04:14:00.675Z,8.50
2024-04-15T04:16:27.955Z,8.50
2024-04-15T04:18:56.664Z,8.50
2024-04-15T04:21:23.919Z,8.50
2024-04-15T04:23:51.188Z,8.50
2024-04-15T04:26:18.573Z,8.40
2024-04-15T04:28:45.797Z,8.40
2024-04-15T04:31:14.709Z,8.40
2024-04-15T04:33:42.127Z,8.50
2024-04-15T04:36:09.611Z,8.50
2024-04-15T04:38:37.075Z,8.50
2024-04-15T04:41:04.421Z,8.60
2024-04-15T04:43:31.873Z,8.60
2024-04-15T04:46:08.069Z,8.60
2024-04-15T04:48:35.394Z,8.60
2024-04-15T04:51:09.499Z,8.70
2024-04-15T04:53:37.072Z,8.70
2024-04-15T04:56:11.867Z,8.80
2024-04-15T04:58:39.589Z,8.80
2024-04-15T05:01:10.498Z,8.80
2024-04-15T05:03:39.589Z,8.80
2024-04-15T05:06:07.694Z,8.90
2024-04-15T05:08:35.385Z,9.00
2024-04-15T05:11:03.036Z,9.00
2024-04-15T05:13:30.719Z,9.00
2024-04-15T05:16:04.976Z,9.00
2024-04-15T05:18:32.551Z,8.90
2024-04-15T05:21:03.315Z,8.90
2024-04-15T05:23:31.153Z,9.10
2024-04-15T05:25:59.107Z,9.10
2024-04-15T05:28:26.469Z,9.30
2024-04-15T05:30:54.263Z,9.20
2024-04-15T05:33:21.980Z,9.30
2024-04-15T05:35:49.249Z,9.30
2024-04-15T05:38:16.876Z,9.30
2024-04-15T05:40:44.131Z,9.30
2024-04-15T05:43:11.567Z,9.40
2024-04-15T05:45:39.199Z,9.40
2024-04-15T05:48:06.902Z,9.40
2024-04-15T05:50:34.593Z,9.50
2024-04-15T05:53:03.397Z,9.50
2024-04-15T05:55:30.675Z,9.50
2024-04-15T05:57:57.971Z,9.60
2024-04-15T06:00:25.379Z,9.60
2024-04-15T06:02:52.654Z,9.70
2024-04-15T06:05:20.995Z,9.80
2024-04-15T06:07:48.295Z,9.90
2024-04-15T06:10:15.576Z,9.90
2024-04-15T06:12:42.804Z,10.00
2024-04-15T06:15:10.143Z,10.00
2024-04-15T06:17:37.543Z,10.10
2024-04-15T06:20:05.164Z,10.20
2024-04-15T06:22:32.556Z,10.20
2024-04-15T06:24:59.786Z,10.30
2024-04-15T06:27:27.047Z,10.30
2024-04-15T06:29:54.347Z,10.30
2024-04-15T06:32:21.727Z,10.40
2024-04-15T06:34:48.977Z,10.40
2024-04-15T06:37:16.242Z,10.50
2024-04-15T06:39:45.045Z,10.50
2024-04-15T06:42:12.552Z,10.50
2024-04-15T06:44:39.831Z,10.50
2024-04-15T06:47:07.260Z,10.50
2024-04-15T06:49:34.491Z,10.50
2024-04-15T06:52:01.769Z,10.50
2024-04-15T06:54:29.217Z,10.60
2024-04-15T06:56:57.192Z,10.60
2024-04-15T06:59:24.642Z,10.70
2024-04-15T07:01:52.233Z,10.80
2024-04-15T07:04:19.660Z,10.90
2024-04-15T07:06:48.699Z,10.90
2024-04-15T07:09:16.234Z,10.90
2024-04-15T07:11:43.640Z,10.90
2024-04-15T07:14:11.034Z,10.90
2024-04-15T07:16:38.467Z,10.90
2024-04-15T07:19:05.857Z,11.00
2024-04-15T07:21:33.134Z,11.10
2024-04-15T07:24:02.193Z,11.30
2024-04-15T07:26:32.611Z,11.30
2024-04-15T07:29:00.845Z,11.40
2024-04-15T07:31:31.119Z,11.40
2024-04-15T07:33:58.520Z,11.30
2024-04-15T07:36:25.824Z,11.40
2024-04-15T07:38:53.025Z,11.40
2024-04-15T07:41:20.258Z,11.40
2024-04-15T07:43:47.496Z,11.40
2024-04-15T07:46:14.891Z,11.50
2024-04-15T07:48:42.655Z,11.60
2024-04-15T07:51:10.667Z,11.80
2024-04-15T07:53:37.921Z,11.80
2024-04-15T07:56:05.343Z,11.90
2024-04-15T07:58:35.394Z,11.90
2024-04-15T08:01:02.827Z,11.80
2024-04-15T08:03:30.224Z,11.80
2024-04-15T08:05:58.166Z,11.70
2024-04-15T08:08:25.470Z,11.80
2024-04-15T08:10:53.331Z,11.70
2024-04-15T08:13:20.797Z,11.80
2024-04-15T08:15:48.147Z,11.70
2024-04-15T08:18:16.397Z,11.60
2024-04-15T08:20:43.721Z,11.70
2024-04-15T08:23:12.604Z,11.70
2024-04-15T08:25:42.803Z,11.70
2024-04-15T08:28:11.688Z,11.70
2024-04-15T08:30:39.082Z,11.80
2024-04-15T08:33:06.482Z,11.70
2024-04-15T08:35:33.887Z,11.50
2024-04-15T08:38:01.236Z,11.50
2024-04-15T08:40:28.479Z,11.40
2024-04-15T08:42:56.867Z,11.30
2024-04-15T08:45:25.137Z,11.00
2024-04-15T08:47:54.835Z,10.80
2024-04-15T08:50:22.970Z,10.50
2024-04-15T08:52:50.981Z,10.20
2024-04-15T08:55:19.601Z,9.90
2024-04-15T08:57:48.000Z,9.70
2024-04-15T09:00:18.301Z,9.60
2024-04-15T09:02:46.738Z,9.50
2024-04-15T09:05:15.314Z,9.00
2024-04-15T09:07:42.622Z,8.70
2024-04-15T09:10:14.761Z,8.30
2024-04-15T09:12:43.174Z,8.10
2024-04-15T09:15:11.422Z,7.70
2024-04-15T09:17:38.741Z,7.50
2024-04-15T09:20:06.542Z,7.30
2024-04-15T09:22:35.508Z,7.20
2024-04-15T09:25:06.637Z,7.20
2024-04-15T09:27:34.323Z,7.30
2024-04-15T09:30:02.370Z,7.30
2024-04-15T09:32:29.817Z,7.30
2024-04-15T09:35:01.763Z,7.30
2024-04-15T09:37:29.398Z,7.30
2024-04-15T09:39:56.820Z,7.40
2024-04-15T09:42:25.186Z,7.50
2024-04-15T09:44:52.774Z,7.70
2024-04-15T09:47:20.095Z,7.90
2024-04-15T09:49:48.050Z,8.00
2024-04-15T09:52:18.594Z,8.20
2024-04-15T09:54:54.366Z,8.20
2024-04-15T09:57:22.296Z,8.30
2024-04-15T10:00:00.388Z,8.40
2024-04-15T10:02:40.522Z,8.40
2024-04-15T10:05:21.271Z,8.30
2024-04-15T10:07:53.164Z,8.50
2024-04-15T10:10:22.761Z,8.60
2024-04-15T10:12:51.072Z,8.80
2024-04-15T10:15:19.046Z,9.00
2024-04-15T10:17:59.610Z,9.20
2024-04-15T10:20:33.922Z,9.30
2024-04-15T10:23:06.277Z,9.50
2024-04-15T10:25:38.492Z,9.60
2024-04-15T10:28:06.553Z,9.70
2024-04-15T10:30:34.228Z,9.80
2024-04-15T10:33:04.541Z,10.00
2024-04-15T10:35:33.911Z,10.00
2024-04-15T10:38:02.407Z,10.10
2024-04-15T10:40:30.338Z,10.30
2024-04-15T10:42:58.576Z,10.40
2024-04-15T10:45:27.502Z,10.50
2024-04-15T10:47:55.333Z,10.50
2024-04-15T10:50:24.243Z,10.50
2024-04-15T10:52:51.667Z,10.50
2024-04-15T10:55:22.707Z,10.60
2024-04-15T10:57:51.560Z,10.80
2024-04-15T11:00:19.796Z,10.80
2024-04-15T11:02:48.031Z,10.90
2024-04-15T11:05:15.897Z,10.90
2024-04-15T11:07:43.756Z,11.00
2024-04-15T11:10:13.231Z,11.10
2024-04-15T11:12:40.832Z,11.30
2024-04-15T11:15:12.291Z,11.40
2024-04-15T11:17:52.961Z,11.50
2024-04-15T11:20:21.165Z,11.70
2024-04-15T11:22:48.807Z,11.70
2024-04-15T11:25:16.957Z,11.90
2024-04-15T11:27:50.659Z,12.00
2024-04-15T11:30:22.895Z,11.80
2024-04-15T11:32:52.657Z,11.90
2024-04-15T11:35:20.797Z,11.90
2024-04-15T11:37:55.217Z,11.90
2024-04-15T11:40:22.646Z,11.90
2024-04-15T11:42:50.230Z,12.00
2024-04-15T11:45:17.525Z,11.90
2024-04-15T11:47:44.997Z,11.70
2024-04-15T11:50:12.222Z,11.70
2024-04-15T11:52:39.842Z,12.00
2024-04-15T11:55:16.459Z,12.30
2024-04-15T11:57:47.032Z,12.50
2024-04-15T12:00:14.929Z,12.40
2024-04-15T12:02:42.691Z,12.30
2024-04-15T12:05:10.823Z,12.30
2024-04-15T12:07:41.813Z,12.50
2024-04-15T12:10:11.502Z,12.70
2024-04-15T12:12:40.773Z,12.90
2024-04-15T12:15:11.690Z,13.00
2024-04-15T12:17:41.001Z,12.90
2024-04-15T12:20:09.622Z,12.70
2024-04-15T12:22:37.128Z,12.80
2024-04-15T12:25:08.509Z,12.80
2024-04-15T12:27:39.290Z,13.10
2024-04-15T12:30:08.276Z,13.10
2024-04-15T12:32:35.889Z,13.00
2024-04-15T12:35:03.249Z,13.10
2024-04-15T12:37:30.559Z,13.20
2024-04-15T12:39:57.976Z,13.40
2024-04-15T12:42:30.723Z,13.20
2024-04-15T12:44:58.212Z,13.40
2024-04-15T12:47:26.572Z,13.40
2024-04-15T12:49:53.885Z,13.80
2024-04-15T12:52:21.227Z,14.20
2024-04-15T12:54:51.712Z,14.10
2024-04-15T12:57:21.000Z,14.10
2024-04-15T12:59:48.483Z,13.70
2024-04-15T13:02:16.303Z,13.70
2024-04-15T13:04:46.788Z,13.70
2024-04-15T13:07:14.504Z,13.50
2024-04-15T13:09:41.807Z,13.70
2024-04-15T13:12:11.648Z,13.40
2024-04-15T13:14:39.469Z,13.70
2024-04-15T13:17:06.932Z,14.00
2024-04-15T13:19:34.302Z,13.80
2024-04-15T13:22:04.238Z,13.70
2024-04-15T13:24:35.319Z,13.60
2024-04-15T13:27:02.839Z,13.70
2024-04-15T13:29:33.903Z,13.90
2024-04-15T13:32:09.048Z,13.90
2024-04-15T13:34:43.862Z,13.90
2024-04-15T13:37:15.597Z,13.70
2024-04-15T13:39:43.595Z,13.40
2024-04-15T13:42:11.216Z,13.20
2024-04-15T13:44:38.649Z,13.20
2024-04-15T13:47:06.175Z,13.60
2024-04-15T13:49:33.835Z,14.30
2024-04-15T13:52:02.462Z,14.80
2024-04-15T13:54:32.199Z,14.80
2024-04-15T13:57:00.453Z,14.30
2024-04-15T13:59:28.503Z,14.40
2024-04-15T14:01:55.729Z,14.50
2024-04-15T14:04:23.208Z,14.70
2024-04-15T14:06:51.056Z,14.80
2024-04-15T14:09:23.985Z,14.80
2024-04-15T14:11:51.679Z,14.90
2024-04-15T14:14:20.827Z,14.50
2024-04-15T14:16:49.000Z,14.30
2024-04-15T14:19:16.408Z,14.50
2024-04-15T14:21:44.963Z,14.20
2024-04-15T14:24:12.323Z,14.10
2024-04-15T14:26:39.684Z,13.90
2024-04-15T14:29:08.972Z,13.90
2024-04-15T14:31:36.260Z,14.10
2024-04-15T14:34:03.543Z,14.60
2024-04-15T14:36:31.676Z,14.60
2024-04-15T14:38:59.375Z,14.90
2024-04-15T14:41:26.843Z,15.20
2024-04-15T14:43:57.098Z,15.20
2024-04-15T14:46:26.683Z,14.80
2024-04-15T14:48:54.326Z,14.40
2024-04-15T14:51:21.706Z,14.00
2024-04-15T14:53:50.257Z,13.50
2024-04-15T14:56:18.705Z,13.30
2024-04-15T14:58:45.945Z,12.90
2024-04-15T15:01:13.378Z,12.70
2024-04-15T15:03:40.779Z,12.70
2024-04-15T15:06:08.965Z,12.60
2024-04-15T15:08:36.389Z,12.60
2024-04-15T15:11:10.251Z,12.90
2024-04-15T15:13:49.463Z,13.10
2024-04-15T15:16:16.814Z,13.20
2024-04-15T15:18:44.156Z,13.20
2024-04-15T15:21:20.611Z,13.10
2024-04-15T15:23:54.098Z,12.90
2024-04-15T15:26:21.362Z,12.90
2024-04-15T15:28:48.702Z,12.90
2024-04-15T15:31:20.178Z,12.70
2024-04-15T15:33:49.012Z,13.10
2024-04-15T15:36:17.494Z,13.30
2024-04-15T15:38:44.888Z,13.80
2024-04-15T15:41:13.446Z,13.80
2024-04-15T15:43:40.740Z,14.30
2024-04-15T15:46:08.611Z,14.60
2024-04-15T15:48:36.097Z,14.40
2024-04-15T15:51:03.807Z,14.00
2024-04-15T15:53:31.034Z,13.50
2024-04-15T15:55:58.403Z,13.00
2024-04-15T15:58:25.921Z,12.60
2024-04-15T16:00:53.789Z,11.90
2024-04-15T16:03:22.136Z,11.40
2024-04-15T16:05:50.226Z,10.80
2024-04-15T16:08:18.770Z,11.00
2024-04-15T16:10:46.598Z,11.40
2024-04-15T16:13:18.419Z,11.50
2024-04-15T16:15:46.061Z,11.90
2024-04-15T16:18:15.649Z,12.00
2024-04-15T16:20:43.409Z,12.00
2024-04-15T16:23:11.371Z,11.90
2024-04-15T16:25:38.839Z,11.50
2024-04-15T16:28:06.948Z,11.20
2024-04-15T16:30:45.001Z,10.80
2024-04-15T16:33:16.410Z,10.50
2024-04-15T16:35:50.493Z,10.10
2024-04-15T16:38:19.961Z,9.90
2024-04-15T16:41:13.330Z,9.70
2024-04-15T16:43:41.197Z,10.10
2024-04-15T16:46:09.769Z,10.90
2024-04-15T16:48:38.339Z,10.90
2024-04-15T16:51:05.814Z,10.90
2024-04-15T16:53:45.276Z,10.70
2024-04-15T16:56:12.891Z,10.40
2024-04-15T16:58:57.285Z,10.10
2024-04-15T17:01:25.348Z,10.30
2024-04-15T17:03:52.771Z,11.20
2024-04-15T17:06:20.455Z,12.00
2024-04-15T17:08:48.881Z,12.40
2024-04-15T17:11:17.377Z,12.70
2024-04-15T17:13:44.770Z,13.10
2024-04-15T17:16:15.393Z,13.30
2024-04-15T17:18:42.932Z,13.30
2024-04-15T17:21:10.323Z,13.40
2024-04-15T17:23:44.453Z,13.60
2024-04-15T17:26:11.904Z,13.50
2024-04-15T17:28:39.874Z,13.50
2024-04-15T17:31:09.945Z,13.30
2024-04-15T17:33:37.366Z,13.40
2024-04-15T17:36:05.232Z,13.40
2024-04-15T17:38:33.544Z,13.10
2024-04-15T17:41:04.344Z,13.00
2024-04-15T17:43:34.217Z,13.10
2024-04-15T17:46:02.307Z,13.20
2024-04-15T17:48:29.866Z,13.00
2024-04-15T17:50:58.372Z,12.80
2024-04-15T17:53:25.908Z,13.00
2024-04-15T17:55:53.291Z,12.60
2024-04-15T17:58:20.793Z,12.10
2024-04-15T18:00:49.289Z,11.50
2024-04-15T18:03:16.794Z,11.20
2024-04-15T18:05:49.837Z,10.90
2024-04-15T18:08:17.330Z,10.80
2024-04-15T18:10:46.206Z,10.70
2024-04-15T18:13:13.914Z,10.70
2024-04-15T18:15:42.140Z,10.60
2024-04-15T18:18:09.747Z,10.60
2024-04-15T18:20:40.389Z,10.60
2024-04-15T18:23:08.137Z,10.60
2024-04-15T18:25:38.048Z,10.70
2024-04-15T18:28:06.702Z,11.00
2024-04-15T18:30:37.385Z,11.00
2024-04-15T18:33:05.051Z,11.00
2024-04-15T18:35:32.727Z,10.80
2024-04-15T18:38:03.451Z,10.70
2024-04-15T18:40:31.931Z,10.60
2024-04-15T18:43:01.623Z,10.50
2024-04-15T18:45:30.535Z,10.50
2024-04-15T18:47:59.096Z,10.40
2024-04-15T18:50:31.557Z,10.40
2024-04-15T18:53:01.790Z,10.30
2024-04-15T18:55:29.963Z,10.20
2024-04-15T18:57:57.668Z,10.10
2024-04-15T19:00:30.196Z,10.10
2024-04-15T19:03:01.470Z,10.00
2024-04-15T19:05:46.807Z,9.90
2024-04-15T19:08:16.440Z,9.80
2024-04-15T19:10:47.278Z,9.70
2024-04-15T19:13:30.386Z,9.60
2024-04-15T19:15:59.333Z,9.50
2024-04-15T19:18:30.048Z,9.50
2024-04-15T19:21:01.053Z,9.40
2024-04-15T19:23:32.337Z,9.30
2024-04-15T19:26:05.947Z,9.30
2024-04-15T19:28:34.054Z,9.30
2024-04-15T19:31:02.100Z,9.20
2024-04-15T19:33:32.447Z,9.10
2024-04-15T19:36:00.342Z,9.10
2024-04-15T19:38:29.979Z,9.00
2024-04-15T19:40:59.270Z,9.00
2024-04-15T19:43:27.392Z,9.00
2024-04-15T19:45:58.111Z,8.90
2024-04-15T19:48:27.045Z,8.90
2024-04-15T19:51:00.878Z,8.80
2024-04-15T19:53:29.367Z,8.80
2024-04-15T19:55:57.614Z,8.80
2024-04-15T19:58:25.526Z,8.70
2024-04-15T20:00:56.408Z,8.70
2024-04-15T20:03:30.447Z,8.70
2024-04-15T20:05:58.637Z,8.60
2024-04-15T20:08:27.955Z,8.60
2024-04-15T20:10:55.992Z,8.60
2024-04-15T20:13:25.040Z,8.60
2024-04-15T20:15:53.324Z,8.60
2024-04-15T20:18:36.596Z,8.50
2024-04-15T20:21:04.554Z,8.60
2024-04-15T20:23:35.711Z,8.50
2024-04-15T20:26:03.974Z,8.50
2024-04-15T20:28:41.462Z,8.40
2024-04-15T20:31:14.057Z,8.40
2024-04-15T20:33:44.776Z,8.40
2024-04-15T20:36:17.660Z,8.40
2024-04-15T20:39:17.671Z,8.40
2024-04-15T20:41:49.222Z,8.40
2024-04-15T20:44:25.419Z,8.40
2024-04-15T20:46:57.087Z,8.40
2024-04-15T20:49:28.352Z,8.40
2024-04-15T20:52:00.706Z,8.40
2024-04-15T20:54:36.147Z,8.40
2024-04-15T20:57:28.566Z,8.30
2024-04-15T20:59:56.861Z,8.40
2024-04-15T21:02:25.077Z,8.40
2024-04-15T21:05:01.776Z,8.30
2024-04-15T21:07:50.979Z,8.40
2024-04-15T21:10:19.601Z,8.40
2024-04-15T21:12:47.951Z,8.40
2024-04-15T21:15:24.079Z,8.50
2024-04-15T21:17:52.522Z,8.50
2024-04-15T21:20:32.554Z,8.50
2024-04-15T21:23:03.656Z,8.60
2024-04-15T21:25:52.009Z,8.70
2024-04-15T21:28:32.285Z,8.70
2024-04-15T21:31:11.560Z,8.70
2024-04-15T21:33:40.287Z,8.70
2024-04-15T21:36:08.974Z,8.70
2024-04-15T21:38:37.128Z,8.70
2024-04-15T21:41:08.091Z,8.70
2024-04-15T21:43:40.910Z,8.70
2024-04-15T21:46:11.183Z,8.70
2024-04-15T21:48:41.570Z,8.80
2024-04-15T21:51:09.359Z,8.80
2024-04-15T21:53:37.730Z,8.80
2024-04-15T21:56:05.957Z,8.80
2024-04-15T21:58:33.502Z,8.80
2024-04-15T22:01:00.889Z,8.80
2024-04-15T22:03:28.992Z,8.90
2024-04-15T22:05:57.355Z,8.90
2024-04-15T22:08:25.774Z,8.90
2024-04-15T22:10:54.261Z,8.90
2024-04-15T22:13:24.098Z,8.80
2024-04-15T22:15:52.483Z,8.80
2024-04-15T22:18:20.884Z,8.80
2024-04-15T22:20:49.145Z,8.90
2024-04-15T22:23:17.427Z,8.90
2024-04-15T22:25:53.253Z,8.90
2024-04-15T22:28:22.232Z,8.90
2024-04-15T22:30:51.801Z,8.90
2024-04-15T22:33:20.764Z,8.90
2024-04-15T22:35:49.843Z,9.00
2024-04-15T22:38:17.199Z,9.00
2024-04-15T22:40:44.670Z,9.00
2024-04-15T22:43:12.535Z,9.00
2024-04-15T22:45:40.458Z,9.00
2024-04-15T22:48:07.896Z,9.00
2024-04-15T22:50:35.282Z,9.00
2024-04-15T22:53:02.546Z,9.00
2024-04-15T22:55:29.988Z,9.00
2024-04-15T22:57:57.372Z,9.00
2024-04-15T23:00:24.862Z,9.00
2024-04-15T23:02:52.357Z,8.90
2024-04-15T23:05:19.703Z,8.90
2024-04-15T23:07:47.116Z,8.80
2024-04-15T23:10:14.469Z,8.80
2024-04-15T23:12:41.840Z,8.70
2024-04-15T23:15:09.251Z,8.70
2024-04-15T23:17:36.653Z,8.70
2024-04-15T23:20:04.158Z,8.60
2024-04-15T23:22:31.583Z,8.60
2024-04-15T23:24:58.934Z,8.60
2024-04-15T23:27:26.281Z,8.40
2024-04-15T23:29:53.634Z,8.30
2024-04-15T23:32:20.955Z,8.30
2024-04-15T23:34:48.281Z,8.20
2024-04-15T23:37:15.635Z,8.20
2024-04-15T23:39:43.088Z,8.20
2024-04-15T23:42:10.365Z,8.20
2024-04-15T23:44:37.789Z,8.20
2024-04-15T23:47:23.929Z,8.10
2024-04-15T23:50:10.163Z,8.20
2024-04-15T23:52:56.307Z,8.20
2024-04-15T23:55:42.627Z,8.20
2024-04-15T23:58:13.228Z,8.20
